Home > Products > Valid Products > TAF

000
FTUS44 KLUB 181427 AAA
TAFCDS
TAF AMD
KCDS 181427Z 1814/1912 20008KT P6SM BKN005
     FM181800 23014G22KT P6SM FEW120
     FM190100 24008KT P6SM FEW150=



000
FTUS44 KLUB 181427 AAA
TAFCDS
TAF AMD
KCDS 181427Z 1814/1912 20008KT P6SM BKN005
     FM181800 23014G22KT P6SM FEW120
     FM190100 24008KT P6SM FEW150=



000
FTUS44 KLUB 181220 AAB
TAFLBB
TAF AMD
KLBB 181220Z 1813/1912 29007KT P6SM FEW010
     FM181700 24018G28KT P6SM FEW150
     FM190200 25010KT P6SM FEW150=



000
FTUS44 KLUB 181210 AAA
TAFLBB
TAF AMD
KLBB 181210Z 1812/1912 28005KT 3SM BR BKN002
     FM181300 27006KT P6SM FEW015
     FM181700 24018G28KT P6SM FEW150
     FM190200 25010KT P6SM FEW150=



000
FTUS44 KLUB 181210 AAA
TAFLBB
TAF AMD
KLBB 181210Z 1812/1912 28005KT 3SM BR BKN002
     FM181300 27006KT P6SM FEW015
     FM181700 24018G28KT P6SM FEW150
     FM190200 25010KT P6SM FEW150=



000
FTUS44 KLUB 181120
TAFCDS
TAF
KCDS 181120Z 1812/1912 13004KT 1/4SM FG VV002
     FM181600 20007KT P6SM BKN010
     FM181800 23014G22KT P6SM FEW120
     FM190100 24008KT P6SM FEW150=



000
FTUS44 KLUB 181120
TAFLBB
TAF
KLBB 181120Z 1812/1912 28005KT 1/4SM FG VV002
     FM181300 27006KT P6SM FEW015
     FM181700 24018G28KT P6SM FEW150
     FM190200 25010KT P6SM FEW150=



000
FTUS44 KLUB 180955 AAB
TAFLBB
TAF AMD
KLBB 180955Z 1810/1906 10005KT 1/4SM FG VV001
     FM181200 26007KT P6SM SKC
     FM181800 24018G28KT P6SM FEW250
     FM190200 25008KT P6SM FEW250=



000
FTUS44 KLUB 180955 AAB
TAFLBB
TAF AMD
KLBB 180955Z 1810/1906 10005KT 1/4SM FG VV001
     FM181200 26007KT P6SM SKC
     FM181800 24018G28KT P6SM FEW250
     FM190200 25008KT P6SM FEW250=



000
FTUS44 KLUB 180955 AAC
TAFCDS
TAF AMD
KCDS 180955Z 1810/1906 12003KT 1/4SM FG VV002
     FM181600 20007KT P6SM BKN010
     FM181800 21014KT P6SM FEW250
     FM190100 18008KT P6SM SKC=



000
FTUS44 KLUB 180923 AAA
TAFLBB
TAF AMD
KLBB 180923Z 1810/1906 10005KT 1/2SM FG VV001
     FM181200 26007KT P6SM SKC
     FM181800 24018G28KT P6SM FEW250
     FM190200 25008KT P6SM FEW250=



000
FTUS44 KLUB 180910 AAB
TAFCDS
TAF AMD
KCDS 180910Z 1809/1906 11003KT 1SM BR SCT002
     FM181000 16006KT 1/2SM FG BKN002
     FM181600 20007KT P6SM BKN010
     FM181800 21014KT P6SM FEW250
     FM190100 18008KT P6SM SKC=



000
FTUS44 KLUB 180656 AAA
TAFCDS
TAF AMD
KCDS 180656Z 1807/1906 11006KT P6SM SCT002
     FM180900 16006KT 1/2SM FG BKN002
     FM181600 20007KT P6SM BKN010
     FM181800 21014KT P6SM FEW250
     FM190100 18008KT P6SM SKC=



000
FTUS44 KLUB 180656 AAA
TAFCDS
TAF AMD
KCDS 180656Z 1807/1906 11006KT P6SM SCT002
     FM180900 16006KT 1/2SM FG BKN002
     FM181600 20007KT P6SM BKN010
     FM181800 21014KT P6SM FEW250
     FM190100 18008KT P6SM SKC=



000
FTUS44 KLUB 180520
TAFLBB
TAF
KLBB 180520Z 1806/1906 15008KT P6SM SKC
     FM181800 24018G28KT P6SM FEW250
     FM190200 25008KT P6SM FEW250=



000
FTUS44 KLUB 180520
TAFCDS
TAF
KCDS 180520Z 1806/1906 14006KT P6SM SCT002
     FM180700 16006KT 1/2SM FG BKN002
     FM181600 20007KT P6SM BKN010
     FM181800 21014KT P6SM FEW250
     FM190100 18008KT P6SM SKC=



000
FTUS44 KLUB 180112 AAB
TAFCDS
TAF AMD
KCDS 180112Z 1801/1824 14010KT P6SM BKN008
     FM180230 15007KT P6SM SCT010
     FM180700 16007KT 6SM BR SCT002
     FM181500 22010KT P6SM SKC=



000
FTUS44 KLUB 180112 AAB
TAFCDS
TAF AMD
KCDS 180112Z 1801/1824 14010KT P6SM BKN008
     FM180230 15007KT P6SM SCT010
     FM180700 16007KT 6SM BR SCT002
     FM181500 22010KT P6SM SKC=



000
FTUS44 KLUB 180040 AAA
TAFCDS
TAF AMD
KCDS 180040Z 1801/1824 14010KT P6SM BKN008
     FM180130 15007KT P6SM SCT010
     FM180700 16007KT 6SM BR SCT002
     FM181500 22010KT P6SM SKC=



000
FTUS44 KLUB 172340
TAFLBB
TAF
KLBB 172340Z 1800/1824 26008KT P6SM FEW120
     FM181800 23016G26KT P6SM SKC=



000
FTUS44 KLUB 172340
TAFCDS
TAF
KCDS 172340Z 1800/1824 14010KT P6SM SCT020
     FM180700 16007KT 6SM BR SCT002
     FM181500 22010KT P6SM SKC=



000
FTUS44 KLUB 172201 AAA
TAFCDS
TAF AMD
KCDS 172201Z 1722/1818 14010KT P6SM OVC020
      TEMPO 1722/1724 OVC006=



000
FTUS44 KLUB 171710
TAFLBB
TAF
KLBB 171710Z 1718/1818 27008KT P6SM FEW120=



000
FTUS44 KLUB 171710
TAFLBB
TAF
KLBB 171710Z 1718/1818 27008KT P6SM FEW120=



000
FTUS44 KLUB 171710
TAFCDS
TAF
KCDS 171710Z 1718/1818 10010KT P6SM BKN007 OVC020
     FM171900 14010KT P6SM BKN020=



000
FTUS44 KLUB 171710
TAFCDS
TAF
KCDS 171710Z 1718/1818 10010KT P6SM BKN007 OVC020
     FM171900 14010KT P6SM BKN020=



000
FTUS44 KLUB 171540 AAB
TAFCDS
TAF AMD
KCDS 171540Z 1716/1812 12011KT P6SM BKN006 BKN040
     FM171800 14006KT P6SM SCT040
     FM180100 19008KT P6SM SCT015 BKN100=



000
FTUS44 KLUB 171231 AAA
TAFCDS
TAF AMD
KCDS 171231Z 1713/1812 09007KT P6SM BKN009 BKN150
     FM171700 17012KT P6SM SCT040
     FM180100 19008KT P6SM SCT015 BKN100=



000
FTUS44 KLUB 171120
TAFLBB
TAF
KLBB 171120Z 1712/1812 30008KT P6SM SCT100
     FM171800 23014G19KT P6SM FEW100
     FM180200 25008KT P6SM SKC=



000
FTUS44 KLUB 171120
TAFCDS
TAF
KCDS 171120Z 1712/1812 07007KT P6SM BKN020 BKN150
     FM171700 17012KT P6SM SCT040
     FM180100 19008KT P6SM SCT015 BKN100=



000
FTUS44 KLUB 171103 AAF
TAFCDS
TAF AMD
KCDS 171103Z 1711/1806 04008KT P6SM VCTS BKN015CB OVC050
      TEMPO 1711/1712 -TSRA
     FM171200 15010KT P6SM SCT100 BKN150
     FM171700 19010KT P6SM SCT040=



000
FTUS44 KLUB 171103 AAF
TAFCDS
TAF AMD
KCDS 171103Z 1711/1806 04008KT P6SM VCTS BKN015CB OVC050
      TEMPO 1711/1712 -TSRA
     FM171200 15010KT P6SM SCT100 BKN150
     FM171700 19010KT P6SM SCT040=



000
FTUS44 KLUB 170958 AAE
TAFCDS
TAF AMD
KCDS 170958Z 1710/1806 16012KT P6SM VCTS SCT100CB BKN150
     FM171100 15010KT P6SM SCT100 BKN150
     FM171700 19010KT P6SM SCT040=



000
FTUS44 KLUB 170958 AAE
TAFCDS
TAF AMD
KCDS 170958Z 1710/1806 16012KT P6SM VCTS SCT100CB BKN150
     FM171100 15010KT P6SM SCT100 BKN150
     FM171700 19010KT P6SM SCT040=



000
FTUS44 KLUB 170900 AAD
TAFCDS
TAF AMD
KCDS 170900Z 1709/1806 19012KT 3SM TSRA SCT050CB OVC100
     FM171000 15010KT P6SM BKN015
     FM171700 19010KT P6SM SCT040=



000
FTUS44 KLUB 170900 AAD
TAFCDS
TAF AMD
KCDS 170900Z 1709/1806 19012KT 3SM TSRA SCT050CB OVC100
     FM171000 15010KT P6SM BKN015
     FM171700 19010KT P6SM SCT040=



000
FTUS44 KLUB 170818 AAC
TAFCDS
TAF AMD
KCDS 170818Z 1708/1806 19012KT 3SM TSRA SCT025CB
     FM170900 15010KT P6SM BKN015
     FM171700 19010KT P6SM SCT040=



000
FTUS44 KLUB 170748 AAB
TAFCDS
TAF AMD
KCDS 170748Z 1708/1806 12011KT P6SM SCT025
      TEMPO 1708/1709 1SM TSRA BKN025CB
     FM171100 15010KT P6SM BKN015
     FM171700 19010KT P6SM SCT040=



000
FTUS44 KLUB 170705 AAA
TAFCDS
TAF AMD
KCDS 170705Z 1707/1806 12011KT P6SM SCT025
      TEMPO 1708/1710 -TSRA BKN025CB
     FM171100 15010KT P6SM BKN015
     FM171700 19010KT P6SM SCT040=



000
FTUS44 KLUB 170705 AAA
TAFCDS
TAF AMD
KCDS 170705Z 1707/1806 12011KT P6SM SCT025
      TEMPO 1708/1710 -TSRA BKN025CB
     FM171100 15010KT P6SM BKN015
     FM171700 19010KT P6SM SCT040=



000
FTUS44 KLUB 170556 AAA
TAFLBB
TAF AMD
KLBB 170556Z 1706/1806 25010KT P6SM -TSRA BKN040CB
     FM170700 16009KT P6SM SCT040
     FM171900 23013KT P6SM SKC
     FM180000 22008KT P6SM SKC=



000
FTUS44 KLUB 170556 AAA
TAFLBB
TAF AMD
KLBB 170556Z 1706/1806 25010KT P6SM -TSRA BKN040CB
     FM170700 16009KT P6SM SCT040
     FM171900 23013KT P6SM SKC
     FM180000 22008KT P6SM SKC=



000
FTUS44 KLUB 170520
TAFCDS
TAF
KCDS 170520Z 1706/1806 11011KT P6SM -TSRA SCT025CB
     FM170630 12010KT P6SM SCT025
     FM171100 15010KT P6SM BKN015
     FM171700 19010KT P6SM SCT040=



000
FTUS44 KLUB 170520
TAFLBB
TAF
KLBB 170520Z 1706/1806 22010KT P6SM -TSRA BKN040CB
     FM170800 16009KT P6SM SCT040
     FM171900 23013KT P6SM SKC
     FM180000 22008KT P6SM SKC=



000
FTUS44 KLUB 170520
TAFCDS
TAF
KCDS 170520Z 1706/1806 11011KT P6SM -TSRA SCT025CB
     FM170630 12010KT P6SM SCT025
     FM171100 15010KT P6SM BKN015
     FM171700 19010KT P6SM SCT040=



000
FTUS44 KLUB 170520
TAFLBB
TAF
KLBB 170520Z 1706/1806 22010KT P6SM -TSRA BKN040CB
     FM170800 16009KT P6SM SCT040
     FM171900 23013KT P6SM SKC
     FM180000 22008KT P6SM SKC=



000
FTUS44 KLUB 170421 AAB
TAFLBB
TAF AMD
KLBB 170421Z 1704/1724 15016KT P6SM SCT060
      TEMPO 1706/1708 22010KT -TSRA BKN040CB
     FM170800 16009KT P6SM SCT040
     FM171000 30013G23KT P6SM SCT120=



000
FTUS44 KLUB 170327 AAA
TAFCDS
TAF AMD
KCDS 170327Z 1703/1724 15011KT P6SM SCT025
     FM170800 14010KT P6SM -TSRA SCT025CB BKN250
     FM171100 16010KT P6SM BKN025
     FM171700 19010KT P6SM SCT040=



000
FTUS44 KLUB 170151 AAA
TAFLBB
TAF AMD
KLBB 170151Z 1702/1724 15016KT P6SM SCT060
      TEMPO 1702/1703 -TSRA SCT060CB
     FM170500 16009KT P6SM SCT040
     FM171000 30013G23KT P6SM SCT120=



000
FTUS44 KLUB 162340
TAFLBB
TAF
KLBB 162340Z 1700/1724 11013KT P6SM SCT040
     FM170200 15016KT P6SM SCT040 BKN100
     FM170500 16009KT P6SM SCT040
     FM171000 30013G23KT P6SM SCT120=



000
FTUS44 KLUB 162340
TAFCDS
TAF
KCDS 162340Z 1700/1724 VRB20KT P6SM -TSRA SCT025CB
     FM170100 15015G25KT P6SM SCT025
     FM170500 14010KT P6SM SCT040 BKN250=



000
FTUS44 KLUB 162259 AAB
TAFCDS
TAF AMD
KCDS 162259Z 1623/1718 15015G25KT P6SM SCT025
      TEMPO 1623/1701 P6SM -TSRA BKN030CB
     FM170500 14010KT P6SM SCT040 BKN250=



000
FTUS44 KLUB 162259 AAB
TAFCDS
TAF AMD
KCDS 162259Z 1623/1718 15015G25KT P6SM SCT025
      TEMPO 1623/1701 P6SM -TSRA BKN030CB
     FM170500 14010KT P6SM SCT040 BKN250=



000
FTUS44 KLUB 161735 AAA
TAFCDS
TAF AMD
KCDS 161735Z 1618/1718 14012KT P6SM SCT025
     FM162000 15015G25KT P6SM SCT050
      TEMPO 1623/1703 P6SM TSRA BKN030CB
     FM170500 14010KT P6SM SCT040 BKN250=



000
FTUS44 KLUB 161720
TAFLBB
TAF
KLBB 161720Z 1618/1718 20012KT P6SM SCT040 SCT120
     FM162100 18017G27KT P6SM SCT060 SCT120
     FM170200 15016G24KT P6SM SCT040 BKN100 PROB30 1705/1709 -TSRA
      BKN035CB
     FM171200 28012KT P6SM SCT120 SCT250=



000
FTUS44 KLUB 161720
TAFCDS
TAF
KCDS 161720Z 1618/1718 14012KT P6SM BKN025
     FM162000 15015G25KT P6SM SCT050
      TEMPO 1623/1703 P6SM TSRA BKN030CB
     FM170500 14010KT P6SM SCT040 BKN250=



000
FTUS44 KLUB 161720
TAFLBB
TAF
KLBB 161720Z 1618/1718 20012KT P6SM SCT040 SCT120
     FM162100 18017G27KT P6SM SCT060 SCT120
     FM170200 15016G24KT P6SM SCT040 BKN100 PROB30 1705/1709 -TSRA
      BKN035CB
     FM171200 28012KT P6SM SCT120 SCT250=



000
FTUS44 KLUB 161720
TAFCDS
TAF
KCDS 161720Z 1618/1718 14012KT P6SM BKN025
     FM162000 15015G25KT P6SM SCT050
      TEMPO 1623/1703 P6SM TSRA BKN030CB
     FM170500 14010KT P6SM SCT040 BKN250=



000
FTUS44 KLUB 161620 AAA
TAFLBB
TAF AMD
KLBB 161620Z 1616/1712 22012KT P6SM FEW040 SCT120
     FM161800 19017G27KT P6SM SCT060 PROB30 1701/1705 P6SM -TSRA
      BKN050CB
     FM170500 17010KT P6SM SCT250=



000
FTUS44 KLUB 161620 AAA
TAFLBB
TAF AMD
KLBB 161620Z 1616/1712 22012KT P6SM FEW040 SCT120
     FM161800 19017G27KT P6SM SCT060 PROB30 1701/1705 P6SM -TSRA
      BKN050CB
     FM170500 17010KT P6SM SCT250=



000
FTUS44 KLUB 161601 AAA
TAFCDS
TAF AMD
KCDS 161601Z 1616/1712 14012KT P6SM BKN012
     FM161800 15015G25KT P6SM SCT040 PROB30 1701/1705 P6SM TSRA
      BKN030CB
     FM170500 14010KT P6SM SCT040 BKN250=



000
FTUS44 KLUB 161120
TAFCDS
TAF
KCDS 161120Z 1612/1712 15009KT P6SM SKC
     FM161700 15015G25KT P6SM SCT040 PROB30 1622/1702 P6SM TSRA
      BKN030CB
     FM170200 14010KT P6SM SCT040 BKN250=



000
FTUS44 KLUB 161120
TAFLBB
TAF
KLBB 161120Z 1612/1712 16010KT P6SM FEW120 SCT250
     FM161600 19017G27KT P6SM SCT060 PROB30 1621/1701 P6SM -TSRA
      BKN050CB
     FM170200 17010KT P6SM SCT250=



000
FTUS44 KLUB 161120
TAFCDS
TAF
KCDS 161120Z 1612/1712 15009KT P6SM SKC
     FM161700 15015G25KT P6SM SCT040 PROB30 1622/1702 P6SM TSRA
      BKN030CB
     FM170200 14010KT P6SM SCT040 BKN250=



000
FTUS44 KLUB 161120
TAFLBB
TAF
KLBB 161120Z 1612/1712 16010KT P6SM FEW120 SCT250
     FM161600 19017G27KT P6SM SCT060 PROB30 1621/1701 P6SM -TSRA
      BKN050CB
     FM170200 17010KT P6SM SCT250=



000
FTUS44 KLUB 160520
TAFLBB
TAF
KLBB 160520Z 1606/1706 16010KT P6SM FEW090
     FM161600 19017G27KT P6SM SCT060 PROB30 1621/1701 P6SM -TSRA
      BKN050CB
     FM170200 17010KT P6SM SCT250=



000
FTUS44 KLUB 160520
TAFCDS
TAF
KCDS 160520Z 1606/1706 15010KT P6SM FEW100
     FM161600 15015G25KT P6SM SCT040 PROB30 1622/1702 P6SM -TSRA
      BKN030CB
     FM170200 14010KT P6SM SCT040 BKN250=



000
FTUS44 KLUB 160520
TAFLBB
TAF
KLBB 160520Z 1606/1706 16010KT P6SM FEW090
     FM161600 19017G27KT P6SM SCT060 PROB30 1621/1701 P6SM -TSRA
      BKN050CB
     FM170200 17010KT P6SM SCT250=



000
FTUS44 KLUB 160520
TAFCDS
TAF
KCDS 160520Z 1606/1706 15010KT P6SM FEW100
     FM161600 15015G25KT P6SM SCT040 PROB30 1622/1702 P6SM -TSRA
      BKN030CB
     FM170200 14010KT P6SM SCT040 BKN250=



000
FTUS44 KLUB 152327
TAFLBB
TAF
KLBB 152327Z 1600/1624 20015G25KT P6SM FEW090
     FM160100 17010KT P6SM SCT200
     FM161600 19014G24KT P6SM SCT070=



000
FTUS44 KLUB 152327
TAFCDS
TAF
KCDS 152327Z 1600/1624 19016G26KT P6SM FEW050
     FM160100 16007KT P6SM SCT200
     FM161600 15015G25KT P6SM SCT050=



000
FTUS44 KLUB 152327
TAFCDS
TAF
KCDS 152327Z 1600/1624 19016G26KT P6SM FEW050
     FM160100 16007KT P6SM SCT200
     FM161600 15015G25KT P6SM SCT050=



000
FTUS44 KLUB 152327
TAFLBB
TAF
KLBB 152327Z 1600/1624 20015G25KT P6SM FEW090
     FM160100 17010KT P6SM SCT200
     FM161600 19014G24KT P6SM SCT070=



000
FTUS44 KLUB 152002 AAA
TAFCDS
TAF AMD
KCDS 152002Z 1520/1618 19016G24KT P6SM SCT050
     FM160100 16013KT P6SM SCT200=



000
FTUS44 KLUB 151728
TAFLBB
TAF
KLBB 151728Z 1518/1618 20016G25KT P6SM FEW050
     FM160000 17013KT P6SM SCT200
     FM160700 14007KT P6SM SCT060 BKN100=



000
FTUS44 KLUB 151728
TAFLBB
TAF
KLBB 151728Z 1518/1618 20016G25KT P6SM FEW050
     FM160000 17013KT P6SM SCT200
     FM160700 14007KT P6SM SCT060 BKN100=



000
FTUS44 KLUB 151728
TAFCDS
TAF
KCDS 151728Z 1518/1618 19013KT P6SM SCT050
     FM160100 16013KT P6SM SCT200=



000
FTUS44 KLUB 151728
TAFCDS
TAF
KCDS 151728Z 1518/1618 19013KT P6SM SCT050
     FM160100 16013KT P6SM SCT200=



    US Dept of Commerce
    National Oceanic and Atmospheric Administration
    National Weather Service
    1325 East West Highway
    Silver Spring, MD 20910
    Page Author: NWS Internet Services Team
Disclaimer
Information Quality
Credits
Glossary
Privacy Policy
Freedom of Information Act (FOIA)
About Us
Career Opportunities